Time;durP1;ratioP1;P1;durP2;ratioP2;P2;SDS_P1;SDS_P2;PMS_P1;PMS_P2;Temp;Humidity;BMP_temperature;BMP_pressure;BME280_temperature;BME280_humidity;BME280_pressure;Samples;Min_cycle;Max_cycle;Signal;HPM_P1;HPM_P2
2022/11/21 00:01:22;;;;;;;21.58;10.98;;;;;;;1.53;100.00;97335.00;2637893;28;20054;-87
2022/11/21 00:02:37;;;;;;;44.00;17.08;;;;;;;1.48;100.00;97347.09;2637633;28;20074;-87
2022/11/21 00:03:53;;;;;;;56.45;20.52;;;;;;;1.48;100.00;97344.53;2638033;28;20047;-89
2022/11/21 00:05:09;;;;;;;38.10;16.23;;;;;;;1.71;100.00;97340.00;2637593;28;20047;-88
2022/11/21 00:06:25;;;;;;;30.08;13.43;;;;;;;1.59;100.00;97328.94;2637850;28;20555;-87
2022/11/21 00:07:41;;;;;;;30.33;14.27;;;;;;;1.58;100.00;97327.22;2637482;28;20082;-88
2022/11/21 00:08:57;;;;;;;26.35;11.30;;;;;;;1.78;100.00;97331.34;2637726;28;20497;-90
2022/11/21 00:10:12;;;;;;;22.65;9.85;;;;;;;1.94;100.00;97326.84;2637534;28;20056;-88
2022/11/21 00:11:28;;;;;;;22.08;10.65;;;;;;;1.59;100.00;97330.66;2638143;27;20062;-89
2022/11/21 00:12:43;;;;;;;18.13;9.52;;;;;;;1.48;100.00;97336.78;2637685;28;20058;-87
2022/11/21 00:13:59;;;;;;;19.58;9.07;;;;;;;1.63;100.00;97327.19;2637846;28;20066;-87
2022/11/21 00:15:15;;;;;;;22.65;10.65;;;;;;;1.73;100.00;97322.78;2637653;28;20105;-87
2022/11/21 00:16:30;;;;;;;34.05;14.73;;;;;;;1.65;100.00;97330.59;2637784;28;20081;-88
2022/11/21 00:17:46;;;;;;;30.90;15.20;;;;;;;1.62;100.00;97318.59;2637709;28;20062;-88
2022/11/21 00:19:02;;;;;;;41.88;17.58;;;;;;;1.75;100.00;97321.91;2637402;28;20417;-89
2022/11/21 00:20:20;;;;;;;48.65;19.40;;;;;;;1.85;100.00;97316.66;2637524;28;20122;-90
2022/11/21 00:21:35;;;;;;;47.22;20.55;;;;;;;1.73;100.00;97318.47;2637916;28;20052;-89
2022/11/21 00:22:51;;;;;;;53.72;19.20;;;;;;;1.83;100.00;97309.78;2637579;28;20615;-90
2022/11/21 00:24:09;;;;;;;51.35;20.35;;;;;;;1.89;100.00;97318.31;2637865;28;20051;-89
2022/11/21 00:25:24;;;;;;;45.50;19.52;;;;;;;1.76;100.00;97310.69;2637750;28;20665;-88
2022/11/21 00:26:40;;;;;;;43.03;19.55;;;;;;;1.81;100.00;97306.34;2637452;28;20124;-89
2022/11/21 00:27:55;;;;;;;52.00;20.40;;;;;;;1.93;100.00;97309.66;2637452;28;20442;-93
2022/11/21 00:29:11;;;;;;;40.00;18.63;;;;;;;1.55;100.00;97307.50;2637419;28;20055;-90
2022/11/21 00:30:26;;;;;;;39.85;18.33;;;;;;;1.43;100.00;97297.28;2637594;28;20062;-89
2022/11/21 00:31:42;;;;;;;42.47;18.58;;;;;;;1.58;100.00;97298.84;2637716;28;20079;-86
2022/11/21 00:32:58;;;;;;;41.20;16.70;;;;;;;1.32;100.00;97296.53;2637598;28;20048;-89
2022/11/21 00:34:15;;;;;;;38.33;15.40;;;;;;;1.61;100.00;97297.97;2637567;28;20083;-89
2022/11/21 00:35:31;;;;;;;37.15;16.23;;;;;;;1.68;100.00;97290.16;2637401;28;20047;-89
2022/11/21 00:36:47;;;;;;;27.50;12.38;;;;;;;1.50;100.00;97287.78;2637572;28;20482;-86
2022/11/21 00:38:02;;;;;;;24.15;11.27;;;;;;;1.40;100.00;97295.59;2637592;28;20047;-89
2022/11/21 00:39:18;;;;;;;23.95;11.05;;;;;;;1.69;100.00;97302.16;2637454;28;20888;-88
2022/11/21 00:40:33;;;;;;;21.42;11.00;;;;;;;1.44;100.00;97291.25;2637694;28;20040;-90
2022/11/21 00:41:49;;;;;;;22.35;10.77;;;;;;;1.63;100.00;97291.94;2637839;28;20086;-89
2022/11/21 00:43:04;;;;;;;20.13;9.85;;;;;;;1.65;100.00;97286.72;2637800;28;20052;-88
2022/11/21 00:44:20;;;;;;;19.48;9.27;;;;;;;1.82;100.00;97284.84;2637058;28;20055;-89
2022/11/21 00:45:36;;;;;;;18.17;9.00;;;;;;;1.86;100.00;97285.63;2637570;28;20572;-90
2022/11/21 00:46:52;;;;;;;23.10;11.07;;;;;;;1.83;100.00;97281.38;2637540;28;20054;-88
2022/11/21 00:48:07;;;;;;;27.02;11.90;;;;;;;1.36;100.00;97280.16;2637373;28;20035;-88
2022/11/21 00:49:23;;;;;;;35.20;16.60;;;;;;;1.32;100.00;97276.75;2637275;28;20047;-88
2022/11/21 00:50:38;;;;;;;34.30;15.68;;;;;;;1.30;100.00;97277.66;2636987;28;20533;-88
2022/11/21 00:51:54;;;;;;;43.50;17.38;;;;;;;1.58;100.00;97267.88;2637325;28;20458;-87
2022/11/21 00:53:09;;;;;;;46.78;19.70;;;;;;;1.75;100.00;97272.88;2637433;28;20050;-89
2022/11/21 00:54:25;;;;;;;42.95;18.23;;;;;;;1.42;100.00;97262.06;2637475;28;20100;-87
2022/11/21 00:55:41;;;;;;;44.67;19.65;;;;;;;1.57;100.00;97261.03;2636785;28;20169;-88
2022/11/21 00:56:57;;;;;;;43.67;20.27;;;;;;;1.83;100.00;97267.63;2637213;28;20048;-88
2022/11/21 00:58:12;;;;;;;38.03;17.88;;;;;;;1.60;100.00;97265.31;2637071;28;20081;-87
2022/11/21 00:59:28;;;;;;;37.25;16.20;;;;;;;1.61;100.00;97259.28;2637366;28;20047;-89
2022/11/21 01:00:43;;;;;;;36.72;17.50;;;;;;;1.82;100.00;97255.59;2637183;28;20076;-87
2022/11/21 01:01:59;;;;;;;42.97;18.17;;;;;;;1.78;100.00;97259.09;2637484;28;20047;-88
2022/11/21 01:03:14;;;;;;;40.92;17.63;;;;;;;1.83;100.00;97265.03;2637282;28;20067;-87
2022/11/21 01:04:32;;;;;;;41.15;17.77;;;;;;;1.61;100.00;97256.69;2637471;28;20474;-89
2022/11/21 01:05:48;;;;;;;41.72;18.42;;;;;;;1.90;100.00;97253.78;2637408;28;20053;-88
2022/11/21 01:07:03;;;;;;;44.92;18.25;;;;;;;2.00;100.00;97254.50;2637480;28;20580;-88
2022/11/21 01:08:18;;;;;;;42.45;18.58;;;;;;;2.01;100.00;97258.78;2637375;28;20052;-88
2022/11/21 01:09:34;;;;;;;38.15;17.83;;;;;;;2.11;100.00;97252.66;2637228;28;20075;-87
2022/11/21 01:10:50;;;;;;;38.28;17.40;;;;;;;1.96;100.00;97252.84;2637344;28;20055;-87
2022/11/21 01:12:05;;;;;;;38.13;17.55;;;;;;;2.08;100.00;97254.41;2637246;28;20573;-89
2022/11/21 01:13:21;;;;;;;38.00;16.88;;;;;;;1.85;100.00;97245.22;2637307;28;20142;-88
2022/11/21 01:14:37;;;;;;;41.42;17.23;;;;;;;2.08;100.00;97249.25;2637161;28;20067;-87
2022/11/21 01:15:52;;;;;;;39.22;16.65;;;;;;;2.09;100.00;97251.78;2637353;28;20048;-87
2022/11/21 01:17:08;;;;;;;38.97;16.85;;;;;;;1.92;100.00;97252.03;2637331;28;20043;-87
2022/11/21 01:18:23;;;;;;;32.95;16.25;;;;;;;1.98;100.00;97245.94;2637040;28;20047;-86
2022/11/21 01:19:39;;;;;;;33.00;16.30;;;;;;;2.16;100.00;97246.56;2637161;28;20104;-87
2022/11/21 01:20:59;;;;;;;40.20;16.90;;;;;;;2.15;100.00;97247.44;2637562;28;20436;-87
2022/11/21 01:22:14;;;;;;;32.80;16.55;;;;;;;2.35;100.00;97234.25;2637278;28;20058;-86
2022/11/21 01:23:30;;;;;;;33.08;14.30;;;;;;;1.76;100.00;97230.69;2637290;28;20048;-87
2022/11/21 01:24:46;;;;;;;33.42;13.60;;;;;;;1.85;100.00;97244.38;2637176;28;20124;-87
2022/11/21 01:26:08;;;;;;;28.30;14.43;;;;;;;2.24;100.00;97237.00;2637156;28;20105;-87
2022/11/21 01:27:24;;;;;;;26.63;13.25;;;;;;;2.11;100.00;97237.16;2637698;28;20067;-85
2022/11/21 01:28:40;;;;;;;32.50;13.77;;;;;;;2.05;100.00;97232.06;2637217;28;20071;-86
2022/11/21 01:29:56;;;;;;;28.13;13.95;;;;;;;2.26;100.00;97228.31;2637460;28;20075;-89
2022/11/21 01:31:13;;;;;;;33.70;14.45;;;;;;;2.29;100.00;97224.84;2637355;28;20059;-87
2022/11/21 01:32:28;;;;;;;27.70;12.80;;;;;;;2.31;100.00;97222.25;2637326;28;20474;-86
2022/11/21 01:33:44;;;;;;;32.33;13.95;;;;;;;2.28;100.00;97224.84;2637227;28;20051;-84
2022/11/21 01:35:00;;;;;;;34.03;14.77;;;;;;;2.33;100.00;97218.75;2637225;28;20058;-88
2022/11/21 01:36:17;;;;;;;33.22;14.77;;;;;;;2.33;100.00;97215.34;2637391;28;20063;-86
2022/11/21 01:37:32;;;;;;;29.27;13.77;;;;;;;2.29;100.00;97216.22;2637204;28;20043;-86
2022/11/21 01:38:49;;;;;;;31.35;14.15;;;;;;;2.60;100.00;97220.97;2637087;28;20370;-87
2022/11/21 01:40:06;;;;;;;30.45;15.27;;;;;;;2.63;100.00;97211.41;2637124;28;20073;-88
2022/11/21 01:41:30;;;;;;;35.00;15.25;;;;;;;2.37;100.00;97219.56;2637105;28;20047;-86
2022/11/21 01:42:52;;;;;;;30.23;14.70;;;;;;;2.38;100.00;97219.56;2637442;28;20672;-86
2022/11/21 01:44:23;;;;;;;33.25;14.88;;;;;;;2.61;100.00;97218.34;2637176;28;20563;-88
2022/11/21 01:45:59;;;;;;;31.42;14.07;;;;;;;2.22;100.00;97208.59;2637178;28;20187;-86
2022/11/21 01:47:14;;;;;;;35.75;16.33;;;;;;;2.23;100.00;97214.59;2636935;28;20047;-86
2022/11/21 01:48:41;;;;;;;34.78;17.02;;;;;;;2.29;100.00;97216.22;2637022;28;20074;-86
2022/11/21 01:49:57;;;;;;;31.75;15.68;;;;;;;2.40;100.00;97206.59;2637239;28;20158;-87
2022/11/21 01:51:21;;;;;;;38.55;18.63;;;;;;;2.38;100.00;97206.66;2637275;28;20491;-86
2022/11/21 01:52:37;;;;;;;37.45;15.50;;;;;;;2.19;100.00;97207.78;2637300;28;20044;-86
2022/11/21 01:54:02;;;;;;;45.55;19.85;;;;;;;2.49;100.00;97208.19;2637171;28;20063;-90
2022/11/21 01:55:17;;;;;;;37.88;18.10;;;;;;;2.53;100.00;97204.69;2637309;28;20131;-86
2022/11/21 01:56:39;;;;;;;38.58;18.02;;;;;;;2.59;100.00;97199.41;2636933;28;20055;-87
2022/11/21 01:57:55;;;;;;;36.88;17.42;;;;;;;2.36;100.00;97208.38;2637102;28;20515;-84
2022/11/21 01:59:17;;;;;;;32.88;16.33;;;;;;;2.25;100.00;97205.13;2636973;28;20407;-85
2022/11/21 02:00:37;;;;;;;36.90;16.77;;;;;;;2.49;100.00;97210.78;2637064;28;20075;-88
2022/11/21 02:01:54;;;;;;;33.05;15.93;;;;;;;2.40;100.00;97202.31;2637218;28;20613;-85
2022/11/21 02:03:16;;;;;;;34.33;16.02;;;;;;;2.40;100.00;97199.72;2636737;28;20049;-85
2022/11/21 02:04:34;;;;;;;38.13;15.20;;;;;;;2.36;100.00;97202.38;2636741;28;20059;-85
2022/11/21 02:05:53;;;;;;;34.80;15.98;;;;;;;2.37;100.00;97204.06;2637230;28;20050;-87
2022/11/21 02:07:12;;;;;;;37.45;17.10;;;;;;;2.07;100.00;97199.31;2636805;28;20051;-85
2022/11/21 02:08:28;;;;;;;35.50;14.88;;;;;;;2.24;100.00;97196.50;2637661;28;20047;-87
2022/11/21 02:09:49;;;;;;;32.55;14.93;;;;;;;2.44;100.00;97194.50;2639071;28;20047;-86
2022/11/21 02:11:13;;;;;;;35.80;16.13;;;;;;;2.49;100.00;97188.38;2638978;28;20461;-89
2022/11/21 02:12:34;;;;;;;31.90;13.60;;;;;;;2.24;100.00;97188.75;2639146;28;20401;-90
2022/11/21 02:13:50;;;;;;;27.58;12.55;;;;;;;2.40;100.00;97180.78;2638788;28;20046;-86
2022/11/21 02:15:06;;;;;;;23.05;10.48;;;;;;;2.35;100.00;97180.84;2639169;27;20496;-86
2022/11/21 02:16:23;;;;;;;19.55;9.88;;;;;;;2.56;100.00;97171.06;2638790;28;20056;-87
2022/11/21 02:17:39;;;;;;;19.48;9.63;;;;;;;2.59;100.00;97175.31;2639101;28;20105;-86
2022/11/21 02:18:54;;;;;;;18.05;9.75;;;;;;;2.68;100.00;97176.03;2638764;28;20226;-86
2022/11/21 02:20:13;;;;;;;16.05;7.75;;;;;;;2.53;100.00;97166.78;2638963;28;20817;-86
2022/11/21 02:22:06;;;;;;;13.00;6.72;;;;;;;2.73;100.00;97160.44;2639133;28;20067;-85
2022/11/21 02:23:36;;;;;;;14.65;7.18;;;;;;;2.88;100.00;97164.47;2605873;28;20132;-86
2022/11/21 02:25:02;;;;;;;15.32;6.55;;;;;;;2.78;100.00;97171.53;2606352;28;20064;-85
2022/11/21 02:26:18;;;;;;;17.40;7.95;;;;;;;2.85;100.00;97171.41;2595685;28;20057;-87
2022/11/21 02:27:33;;;;;;;18.25;9.73;;;;;;;3.02;100.00;97171.13;2599926;28;20048;-85
2022/11/21 02:28:49;;;;;;;24.75;11.02;;;;;;;3.08;100.00;97166.69;2620034;28;20079;-86
2022/11/21 02:30:08;;;;;;;26.80;11.70;;;;;;;3.27;100.00;97170.69;2638698;28;20387;-86
2022/11/21 02:31:23;;;;;;;25.05;11.05;;;;;;;3.01;100.00;97166.84;2638548;28;20054;-85
2022/11/21 02:32:41;;;;;;;22.00;11.98;;;;;;;2.91;100.00;97161.00;2638993;28;20040;-85
2022/11/21 02:33:57;;;;;;;24.08;10.77;;;;;;;2.83;100.00;97174.88;2638855;28;20074;-86
2022/11/21 02:35:16;;;;;;;27.25;13.05;;;;;;;2.86;100.00;97176.56;2638752;27;20054;-85
2022/11/21 02:36:43;;;;;;;21.73;10.50;;;;;;;2.70;100.00;97162.22;2638767;28;20058;-86
2022/11/21 02:38:03;;;;;;;22.95;11.07;;;;;;;2.84;100.00;97162.84;2638737;28;20079;-86
2022/11/21 02:39:35;;;;;;;23.50;11.10;;;;;;;2.95;100.00;97157.47;2638531;28;20055;-86
2022/11/21 02:40:58;;;;;;;30.60;14.15;;;;;;;2.91;100.00;97161.81;2638857;28;21192;-87
2022/11/21 02:42:22;;;;;;;32.03;13.90;;;;;;;2.91;100.00;97161.81;2638583;28;20510;-88
2022/11/21 02:43:52;;;;;;;31.92;15.13;;;;;;;2.88;100.00;97155.88;2638575;28;20546;-86
2022/11/21 02:45:13;;;;;;;24.73;12.55;;;;;;;2.94;100.00;97159.22;2638791;28;20095;-85
2022/11/21 02:46:29;;;;;;;25.17;11.48;;;;;;;2.83;100.00;97151.63;2638544;28;20052;-85
2022/11/21 02:47:49;;;;;;;29.55;13.85;;;;;;;2.97;100.00;97153.97;2638392;28;20059;-86
2022/11/21 02:49:08;;;;;;;24.15;11.40;;;;;;;2.97;100.00;97147.94;2638679;28;20486;-85
2022/11/21 02:50:29;;;;;;;24.08;11.13;;;;;;;3.02;100.00;97140.97;2638529;28;20052;-85
2022/11/21 02:51:45;;;;;;;20.20;10.05;;;;;;;3.16;100.00;97139.84;2638843;28;20048;-86
2022/11/21 02:53:01;;;;;;;19.88;9.65;;;;;;;2.99;100.00;97142.75;2638404;28;20043;-86
2022/11/21 02:54:17;;;;;;;17.58;8.70;;;;;;;3.13;100.00;97135.59;2638555;28;20047;-88
2022/11/21 02:55:33;;;;;;;16.50;8.15;;;;;;;3.01;100.00;97134.09;2638437;28;20055;-86
2022/11/21 02:56:49;;;;;;;16.50;7.18;;;;;;;2.96;100.00;97133.31;2638481;28;20054;-86
2022/11/21 02:58:04;;;;;;;17.45;8.70;;;;;;;3.20;100.00;97131.97;2638427;28;20056;-86
2022/11/21 02:59:20;;;;;;;14.23;7.22;;;;;;;3.18;100.00;97130.31;2638189;28;20070;-89
2022/11/21 03:00:37;;;;;;;14.30;6.40;;;;;;;3.25;100.00;97134.47;2638544;28;20734;-87
2022/11/21 03:01:53;;;;;;;11.10;5.88;;;;;;;3.21;100.00;97138.03;2638235;28;20079;-86
2022/11/21 03:03:08;;;;;;;8.45;5.00;;;;;;;3.17;100.00;97131.22;2638731;28;20039;-86
2022/11/21 03:04:25;;;;;;;6.60;3.88;;;;;;;3.26;100.00;97136.19;2638520;27;20044;-86
2022/11/21 03:05:41;;;;;;;5.72;3.63;;;;;;;3.31;100.00;97136.09;2638122;28;20130;-87
2022/11/21 03:06:57;;;;;;;7.95;3.25;;;;;;;3.33;100.00;97132.59;2638403;28;20043;-87
2022/11/21 03:08:12;;;;;;;7.65;3.17;;;;;;;3.36;100.00;97131.69;2638350;27;20055;-86
2022/11/21 03:09:28;;;;;;;5.40;3.38;;;;;;;3.38;100.00;97133.34;2638205;28;20039;-86
2022/11/21 03:10:44;;;;;;;3.95;2.47;;;;;;;3.39;100.00;97134.22;2638137;28;20047;-86
2022/11/21 03:12:05;;;;;;;2.40;1.50;;;;;;;3.23;100.00;97136.25;2638241;28;20058;-85
2022/11/21 03:13:20;;;;;;;3.10;2.22;;;;;;;3.38;100.00;97135.09;2638497;28;20399;-86
2022/11/21 03:14:36;;;;;;;3.42;2.03;;;;;;;3.56;100.00;97135.59;2638219;28;20050;-86
2022/11/21 03:15:54;;;;;;;4.47;2.70;;;;;;;3.70;100.00;97130.97;2638299;28;20073;-85
2022/11/21 03:17:09;;;;;;;3.75;2.40;;;;;;;3.67;100.00;97128.47;2638291;28;20057;-85
2022/11/21 03:18:25;;;;;;;3.70;2.25;;;;;;;3.74;100.00;97129.19;2638159;28;20433;-86
2022/11/21 03:19:40;;;;;;;3.10;2.13;;;;;;;3.55;100.00;97132.16;2637744;28;20051;-85
2022/11/21 03:20:56;;;;;;;2.60;1.77;;;;;;;3.50;100.00;97129.69;2638117;28;20165;-85
2022/11/21 03:22:13;;;;;;;2.42;1.80;;;;;;;3.52;100.00;97130.50;2638414;28;20136;-86
2022/11/21 03:23:29;;;;;;;2.67;1.88;;;;;;;3.71;100.00;97126.66;2637971;28;20096;-85
2022/11/21 03:24:44;;;;;;;4.13;2.05;;;;;;;3.78;100.00;97123.91;2638162;28;20097;-87
2022/11/21 03:26:00;;;;;;;3.95;2.45;;;;;;;3.84;100.00;97122.91;2638485;27;20055;-85
2022/11/21 03:27:16;;;;;;;2.63;1.98;;;;;;;3.73;100.00;97120.56;2637366;28;20056;-86
2022/11/21 03:28:31;;;;;;;3.08;2.20;;;;;;;3.80;100.00;97122.13;2638073;28;20113;-86
2022/11/21 03:29:47;;;;;;;1.60;1.27;;;;;;;3.64;100.00;97123.38;2638175;28;20052;-88
2022/11/21 03:31:03;;;;;;;5.00;2.10;;;;;;;3.84;100.00;97124.66;2637919;28;20056;-87
2022/11/21 03:32:18;;;;;;;2.45;1.90;;;;;;;3.86;100.00;97112.53;2638088;28;20159;-88
2022/11/21 03:33:34;;;;;;;3.53;2.40;;;;;;;3.95;100.00;97120.09;2638146;28;20070;-86
2022/11/21 03:34:49;;;;;;;2.70;1.67;;;;;;;4.03;100.00;97110.38;2638221;28;20047;-87
2022/11/21 03:36:05;;;;;;;3.97;2.00;;;;;;;4.03;100.00;97112.13;2638153;28;20085;-86
2022/11/21 03:37:20;;;;;;;4.20;1.95;;;;;;;4.00;100.00;97105.28;2638155;28;20047;-86
2022/11/21 03:38:36;;;;;;;2.67;1.92;;;;;;;4.14;100.00;97104.09;2637781;28;20047;-86
2022/11/21 03:39:51;;;;;;;3.80;2.20;;;;;;;4.16;100.00;97103.19;2637998;28;20401;-86
2022/11/21 03:41:28;;;;;;;3.03;2.08;;;;;;;4.28;100.00;97099.44;2637910;28;20134;-87
2022/11/21 03:42:43;;;;;;;2.85;1.80;;;;;;;4.26;100.00;97097.78;2637782;28;20453;-87
2022/11/21 03:44:01;;;;;;;3.55;1.90;;;;;;;3.94;100.00;97093.31;2637076;28;20089;-85
2022/11/21 03:45:16;;;;;;;3.53;1.80;;;;;;;4.23;100.00;97088.34;2637691;28;20050;-87
2022/11/21 03:46:35;;;;;;;5.78;2.33;;;;;;;4.21;100.00;97090.97;2637625;28;20071;-86
2022/11/21 03:47:50;;;;;;;3.65;1.67;;;;;;;4.12;100.00;97086.03;2638007;28;20913;-86
2022/11/21 03:49:07;;;;;;;2.42;1.50;;;;;;;4.15;100.00;97085.97;2637636;28;20052;-86
2022/11/21 03:50:22;;;;;;;2.65;1.77;;;;;;;4.10;100.00;97087.78;2637745;28;20052;-86
2022/11/21 03:51:39;;;;;;;2.20;1.80;;;;;;;4.12;100.00;97096.41;2637973;28;20051;-86
2022/11/21 03:52:54;;;;;;;2.95;1.98;;;;;;;3.96;100.00;97090.72;2638039;28;20439;-88
2022/11/21 03:54:10;;;;;;;7.30;2.03;;;;;;;4.11;100.00;97092.06;2637901;28;20096;-86
2022/11/21 03:55:25;;;;;;;3.17;1.70;;;;;;;4.12;100.00;97091.22;2637964;28;20055;-86
2022/11/21 03:56:41;;;;;;;2.70;1.50;;;;;;;3.99;100.00;97089.81;2637578;28;20055;-87
2022/11/21 03:57:57;;;;;;;2.78;1.83;;;;;;;4.04;100.00;97091.38;2637502;28;20129;-87
2022/11/21 03:59:12;;;;;;;2.28;1.88;;;;;;;4.04;100.00;97081.00;2637758;28;20051;-86
2022/11/21 04:00:28;;;;;;;2.70;1.80;;;;;;;4.23;100.00;97078.81;2637685;28;20051;-87
2022/11/21 04:01:44;;;;;;;1.90;1.67;;;;;;;4.17;100.00;97085.91;2637807;28;20051;-86
2022/11/21 04:03:00;;;;;;;3.00;1.85;;;;;;;4.10;100.00;97086.06;2637901;28;20054;-85
2022/11/21 04:04:15;;;;;;;2.70;1.58;;;;;;;4.01;100.00;97088.84;2638005;28;20209;-86
2022/11/21 04:05:31;;;;;;;2.05;1.80;;;;;;;4.09;100.00;97076.59;2637928;28;20063;-87
2022/11/21 04:06:47;;;;;;;2.40;1.63;;;;;;;4.10;100.00;97073.09;2637394;28;20393;-88
2022/11/21 04:08:02;;;;;;;4.47;1.80;;;;;;;4.01;100.00;97088.03;2637731;28;20485;-86
2022/11/21 04:09:18;;;;;;;2.92;1.90;;;;;;;4.04;100.00;97083.59;2637719;28;20082;-86
2022/11/21 04:10:33;;;;;;;6.30;3.20;;;;;;;4.00;100.00;97074.22;2637769;28;20544;-86
2022/11/21 04:11:49;;;;;;;13.88;5.20;;;;;;;3.93;100.00;97081.28;2637630;28;20056;-86
2022/11/21 04:13:05;;;;;;;21.63;8.55;;;;;;;3.99;100.00;97072.50;2637602;28;20051;-85
2022/11/21 04:14:20;;;;;;;18.90;7.13;;;;;;;4.01;100.00;97065.56;2637597;28;20047;-85
2022/11/21 04:15:36;;;;;;;12.57;5.05;;;;;;;4.09;100.00;97071.41;2637623;28;20446;-85
2022/11/21 04:16:52;;;;;;;11.00;4.63;;;;;;;4.05;100.00;97074.97;2637641;28;20082;-87
2022/11/21 04:18:07;;;;;;;7.93;4.05;;;;;;;4.05;100.00;97071.50;2637430;28;20051;-87
2022/11/21 04:19:23;;;;;;;6.82;3.08;;;;;;;3.98;100.00;97073.41;2637148;28;20055;-86
2022/11/21 04:20:39;;;;;;;3.42;1.33;;;;;;;3.96;100.00;97067.41;2637701;28;20485;-86
2022/11/21 04:21:55;;;;;;;3.92;2.08;;;;;;;4.17;100.00;97070.34;2637457;28;20563;-85
2022/11/21 04:23:10;;;;;;;6.53;2.13;;;;;;;4.03;100.00;97065.53;2637266;28;20047;-86
2022/11/21 04:24:26;;;;;;;3.67;2.10;;;;;;;4.14;100.00;97070.44;2637281;28;20058;-84
2022/11/21 04:25:41;;;;;;;2.50;1.83;;;;;;;4.10;100.00;97067.94;2637618;28;20055;-87
2022/11/21 04:26:57;;;;;;;4.18;2.10;;;;;;;4.35;100.00;97064.75;2637157;28;20047;-85
2022/11/21 04:28:13;;;;;;;4.85;1.90;;;;;;;4.16;100.00;97058.28;2637338;28;20436;-85
2022/11/21 04:29:29;;;;;;;34.60;12.07;;;;;;;3.94;100.00;97064.00;2637300;28;20543;-84
2022/11/21 04:30:44;;;;;;;8.20;3.70;;;;;;;3.97;100.00;97069.09;2636573;28;20048;-86
2022/11/21 04:32:00;;;;;;;11.63;6.15;;;;;;;4.13;100.00;97063.56;2637653;28;20112;-85
2022/11/21 04:33:18;;;;;;;18.00;10.23;;;;;;;4.28;100.00;97063.19;2637616;28;20047;-86
2022/11/21 04:34:33;;;;;;;32.08;16.27;;;;;;;4.22;100.00;97068.53;2637643;28;20533;-86
2022/11/21 04:35:49;;;;;;;9.00;4.07;;;;;;;4.41;100.00;97071.50;2637603;28;20052;-86
2022/11/21 04:37:05;;;;;;;19.05;11.48;;;;;;;4.40;100.00;97066.34;2637458;28;20047;-85
2022/11/21 04:38:20;;;;;;;19.63;11.23;;;;;;;4.36;100.00;97068.16;2637313;28;20553;-86
2022/11/21 04:39:36;;;;;;;12.65;7.53;;;;;;;4.35;100.00;97063.88;2637499;28;20048;-85
2022/11/21 04:40:51;;;;;;;4.20;2.85;;;;;;;4.30;100.00;97070.91;2637281;28;20504;-91
2022/11/21 04:42:07;;;;;;;4.78;3.55;;;;;;;4.41;100.00;97058.56;2637420;28;20071;-86
2022/11/21 04:43:23;;;;;;;3.15;1.80;;;;;;;4.28;100.00;97065.75;2636076;27;20898;-87
2022/11/21 04:44:38;;;;;;;5.55;3.05;;;;;;;4.32;100.00;97058.78;2636998;27;20071;-86
2022/11/21 04:45:53;;;;;;;3.03;1.92;;;;;;;4.38;100.00;97062.06;2636600;28;20054;-86
2022/11/21 04:47:09;;;;;;;4.15;2.67;;;;;;;4.53;100.00;97060.78;2637671;28;20048;-85
2022/11/21 04:48:25;;;;;;;5.03;2.33;;;;;;;4.42;100.00;97060.25;2637190;28;20044;-86
2022/11/21 04:49:40;;;;;;;2.90;1.55;;;;;;;4.20;100.00;97057.34;2637570;28;20039;-85
2022/11/21 04:50:56;;;;;;;2.53;1.50;;;;;;;4.36;100.00;97057.78;2637136;28;20062;-85
2022/11/21 04:52:12;;;;;;;3.58;1.98;;;;;;;4.43;100.00;97058.50;2637158;28;20055;-86
2022/11/21 04:53:27;;;;;;;2.35;1.42;;;;;;;4.36;100.00;97056.06;2637497;28;20052;-88
2022/11/21 04:54:44;;;;;;;2.35;1.73;;;;;;;4.45;100.00;97049.81;2637431;28;20618;-91
2022/11/21 04:56:04;;;;;;;3.05;1.52;;;;;;;4.12;100.00;97048.91;2636916;28;20048;-85
2022/11/21 04:57:20;;;;;;;2.63;1.35;;;;;;;4.21;100.00;97044.34;2637548;28;20481;-85
2022/11/21 04:58:36;;;;;;;3.50;2.00;;;;;;;4.52;100.00;97040.13;2636895;28;20055;-86
2022/11/21 04:59:53;;;;;;;3.08;1.83;;;;;;;4.41;100.00;97040.41;2637494;28;20490;-85
2022/11/21 05:01:09;;;;;;;2.47;1.75;;;;;;;4.51;100.00;97041.00;2637480;28;20104;-85
2022/11/21 05:02:25;;;;;;;4.55;2.00;;;;;;;4.50;100.00;97044.50;2637218;28;20130;-85
2022/11/21 05:03:40;;;;;;;3.85;2.30;;;;;;;4.52;100.00;97042.72;2637149;28;20389;-88
2022/11/21 05:04:56;;;;;;;2.95;2.10;;;;;;;4.66;100.00;97037.16;2637062;28;20043;-90
2022/11/21 05:06:11;;;;;;;1.75;1.33;;;;;;;4.51;100.00;97039.25;2637013;28;20048;-88
2022/11/21 05:07:27;;;;;;;4.97;1.92;;;;;;;4.50;100.00;97034.97;2636906;28;20521;-87
2022/11/21 05:08:42;;;;;;;4.53;1.90;;;;;;;4.44;100.00;97034.28;2637379;28;20550;-87
2022/11/21 05:09:58;;;;;;;5.03;2.58;;;;;;;4.49;100.00;97030.69;2637176;28;20494;-87
2022/11/21 05:14:29;;;;;;;7.03;2.45;;;;;;;4.42;100.00;97030.88;2637330;28;20048;-87
2022/11/21 05:15:46;;;;;;;2.80;2.00;;;;;;;4.36;100.00;97032.75;2637409;28;20062;-86
2022/11/21 05:17:01;;;;;;;2.45;1.38;;;;;;;4.31;100.00;97037.19;2637298;28;20569;-87
2022/11/21 05:18:18;;;;;;;4.28;1.70;;;;;;;4.48;100.00;97033.34;2637250;28;20048;-87
2022/11/21 05:19:34;;;;;;;2.03;1.52;;;;;;;4.47;100.00;97032.47;2637096;28;20048;-87
2022/11/21 05:20:49;;;;;;;4.78;2.00;;;;;;;4.47;100.00;97035.06;2637179;28;20043;-87
2022/11/21 05:22:05;;;;;;;3.35;1.60;;;;;;;4.36;100.00;97024.13;2637328;28;20048;-87
2022/11/21 05:23:21;;;;;;;2.97;1.35;;;;;;;4.22;100.00;97027.91;2637382;28;20089;-87
2022/11/21 05:24:37;;;;;;;3.70;1.70;;;;;;;4.41;100.00;97029.19;2637178;28;20051;-88
2022/11/21 05:25:52;;;;;;;2.60;1.45;;;;;;;4.43;100.00;97027.41;2637401;28;20056;-87
2022/11/21 05:27:07;;;;;;;2.30;1.20;;;;;;;4.47;100.00;97023.81;2637468;28;20039;-87
2022/11/21 05:28:23;;;;;;;4.65;1.80;;;;;;;4.41;100.00;97024.00;2637150;28;20048;-89
2022/11/21 05:29:39;;;;;;;2.90;1.30;;;;;;;4.56;100.00;97020.16;2637293;28;20056;-88
2022/11/21 05:30:54;;;;;;;2.38;1.13;;;;;;;4.49;100.00;97024.66;2636699;28;20400;-87
2022/11/21 05:32:10;;;;;;;3.70;1.73;;;;;;;4.75;100.00;97023.06;2637358;28;20509;-87
2022/11/21 05:33:26;;;;;;;5.57;2.90;;;;;;;4.60;100.00;97020.00;2637212;28;20457;-86
2022/11/21 05:34:41;;;;;;;4.32;2.95;;;;;;;4.60;100.00;97017.41;2637094;28;20052;-87
2022/11/21 05:35:57;;;;;;;1.77;1.45;;;;;;;4.48;100.00;97013.44;2636780;28;20051;-86
2022/11/21 05:37:12;;;;;;;3.53;2.17;;;;;;;4.50;100.00;97016.81;2636927;28;20765;-87
2022/11/21 05:38:28;;;;;;;5.95;2.22;;;;;;;4.61;100.00;97013.09;2637279;28;20051;-87
2022/11/21 05:39:43;;;;;;;3.97;1.88;;;;;;;4.68;100.00;97014.66;2637058;28;20059;-87
2022/11/21 05:40:59;;;;;;;2.13;1.20;;;;;;;4.54;100.00;97009.81;2637480;28;20048;-87
2022/11/21 05:42:15;;;;;;;1.98;1.17;;;;;;;4.61;100.00;97011.38;2637242;28;20377;-90
2022/11/21 05:43:46;;;;;;;5.15;1.88;;;;;;;4.71;100.00;97011.97;2639114;28;20535;-87
2022/11/21 05:45:01;;;;;;;3.33;2.05;;;;;;;4.63;100.00;97004.41;2638918;28;20071;-86
2022/11/21 05:46:21;;;;;;;2.58;1.73;;;;;;;4.73;100.00;97009.31;2639032;28;20142;-87
2022/11/21 05:47:36;;;;;;;2.90;1.95;;;;;;;4.69;100.00;97005.97;2639094;28;20047;-88
2022/11/21 05:48:53;;;;;;;3.08;1.83;;;;;;;4.73;100.00;97002.41;2639382;28;20451;-87
2022/11/21 05:50:09;;;;;;;2.97;1.90;;;;;;;4.87;100.00;96996.81;2637747;28;20046;-87
2022/11/21 05:51:24;;;;;;;3.65;1.92;;;;;;;4.94;100.00;97000.06;2638596;28;20051;-91
2022/11/21 05:52:40;;;;;;;4.05;1.92;;;;;;;4.77;100.00;96997.97;2639445;28;20059;-87
2022/11/21 05:53:56;;;;;;;3.83;1.83;;;;;;;4.83;100.00;96997.81;2639208;28;20051;-88
2022/11/21 05:55:11;;;;;;;4.68;1.92;;;;;;;4.97;100.00;96999.16;2639308;28;20047;-87
2022/11/21 05:56:27;;;;;;;5.88;2.08;;;;;;;4.86;100.00;96992.53;2638581;28;20047;-87
2022/11/21 05:57:42;;;;;;;3.15;1.80;;;;;;;4.89;100.00;97005.41;2638922;28;20199;-87
2022/11/21 05:58:58;;;;;;;2.03;1.38;;;;;;;5.07;100.00;96995.41;2639285;28;20431;-87
2022/11/21 06:00:14;;;;;;;5.15;1.40;;;;;;;4.88;100.00;96995.91;2639080;28;20180;-91
2022/11/21 06:04:39;;;;;;;4.32;1.75;;;;;;;4.85;100.00;96998.59;2639292;28;20071;-87